sensor_id;sensor_type;location;lat;lon;timestamp;temperature;humidity
14934;DHT22;7560;51.364;12.384;2023-06-22T00:00:11;23.00;99.90
14934;DHT22;7560;51.364;12.384;2023-06-22T00:05:14;23.00;99.90
14934;DHT22;7560;51.364;12.384;2023-06-22T00:10:15;23.00;99.90
14934;DHT22;7560;51.364;12.384;2023-06-22T00:15:17;23.00;99.90
14934;DHT22;7560;51.364;12.384;2023-06-22T00:20:19;22.80;99.90
14934;DHT22;7560;51.364;12.384;2023-06-22T00:25:21;22.90;99.90
14934;DHT22;7560;51.364;12.384;2023-06-22T00:30:23;22.90;99.90
14934;DHT22;7560;51.364;12.384;2023-06-22T00:35:25;22.90;99.90
14934;DHT22;7560;51.364;12.384;2023-06-22T00:40:33;22.70;99.90
14934;DHT22;7560;51.364;12.384;2023-06-22T00:45:35;22.60;99.90
14934;DHT22;7560;51.364;12.384;2023-06-22T00:50:37;22.40;99.90
14934;DHT22;7560;51.364;12.384;2023-06-22T00:55:42;22.40;99.90
14934;DHT22;7560;51.364;12.384;2023-06-22T01:00:45;22.40;99.90
14934;DHT22;7560;51.364;12.384;2023-06-22T01:05:48;22.40;99.90
14934;DHT22;7560;51.364;12.384;2023-06-22T01:16:07;22.20;99.90
14934;DHT22;7560;51.364;12.384;2023-06-22T01:21:15;21.90;99.90
14934;DHT22;7560;51.364;12.384;2023-06-22T01:31:39;21.80;99.90
14934;DHT22;7560;51.364;12.384;2023-06-22T01:36:42;21.90;99.90
14934;DHT22;7560;51.364;12.384;2023-06-22T01:41:45;21.80;99.90
14934;DHT22;7560;51.364;12.384;2023-06-22T01:46:49;21.80;99.90
14934;DHT22;7560;51.364;12.384;2023-06-22T01:51:54;21.60;99.90
14934;DHT22;7560;51.364;12.384;2023-06-22T01:56:56;21.50;99.90
14934;DHT22;7560;51.364;12.384;2023-06-22T02:02:05;21.60;99.90
14934;DHT22;7560;51.364;12.384;2023-06-22T02:07:13;21.40;99.90
14934;DHT22;7560;51.364;12.384;2023-06-22T02:12:19;21.30;99.90
14934;DHT22;7560;51.364;12.384;2023-06-22T02:17:23;21.30;99.90
14934;DHT22;7560;51.364;12.384;2023-06-22T02:22:25;21.30;99.90
14934;DHT22;7560;51.364;12.384;2023-06-22T02:27:27;21.30;99.90
14934;DHT22;7560;51.364;12.384;2023-06-22T02:32:29;21.30;99.90
14934;DHT22;7560;51.364;12.384;2023-06-22T02:37:31;21.10;99.90
14934;DHT22;7560;51.364;12.384;2023-06-22T02:42:33;21.00;99.90
14934;DHT22;7560;51.364;12.384;2023-06-22T02:47:35;21.00;99.90
14934;DHT22;7560;51.364;12.384;2023-06-22T02:52:37;21.00;99.90
14934;DHT22;7560;51.364;12.384;2023-06-22T02:57:40;21.10;99.90
14934;DHT22;7560;51.364;12.384;2023-06-22T03:02:48;21.00;99.90
14934;DHT22;7560;51.364;12.384;2023-06-22T03:07:51;20.90;99.90
14934;DHT22;7560;51.364;12.384;2023-06-22T03:12:54;21.00;99.90
14934;DHT22;7560;51.364;12.384;2023-06-22T03:17:56;20.90;99.90
14934;DHT22;7560;51.364;12.384;2023-06-22T03:22:58;20.90;99.90
14934;DHT22;7560;51.364;12.384;2023-06-22T03:27:59;20.90;99.90
14934;DHT22;7560;51.364;12.384;2023-06-22T03:33:02;20.90;99.90
14934;DHT22;7560;51.364;12.384;2023-06-22T03:38:03;20.90;99.90
14934;DHT22;7560;51.364;12.384;2023-06-22T03:43:05;21.00;99.90
14934;DHT22;7560;51.364;12.384;2023-06-22T03:48:07;21.00;99.90
14934;DHT22;7560;51.364;12.384;2023-06-22T03:53:09;21.00;99.90
14934;DHT22;7560;51.364;12.384;2023-06-22T03:58:12;20.90;99.90
14934;DHT22;7560;51.364;12.384;2023-06-22T04:03:17;20.80;99.90
14934;DHT22;7560;51.364;12.384;2023-06-22T04:08:22;20.90;99.90
14934;DHT22;7560;51.364;12.384;2023-06-22T04:13:24;21.20;99.90
14934;DHT22;7560;51.364;12.384;2023-06-22T04:18:26;21.60;99.90
14934;DHT22;7560;51.364;12.384;2023-06-22T04:23:28;22.00;99.90
14934;DHT22;7560;51.364;12.384;2023-06-22T04:28:30;22.10;99.90
14934;DHT22;7560;51.364;12.384;2023-06-22T04:33:36;22.30;99.90
14934;DHT22;7560;51.364;12.384;2023-06-22T04:38:42;22.40;99.90
14934;DHT22;7560;51.364;12.384;2023-06-22T04:43:44;22.50;99.90
14934;DHT22;7560;51.364;12.384;2023-06-22T04:48:45;22.60;99.90
14934;DHT22;7560;51.364;12.384;2023-06-22T04:53:47;22.70;99.90
14934;DHT22;7560;51.364;12.384;2023-06-22T04:58:49;22.70;99.90
14934;DHT22;7560;51.364;12.384;2023-06-22T05:03:53;22.70;99.90
14934;DHT22;7560;51.364;12.384;2023-06-22T05:08:58;22.50;99.90
14934;DHT22;7560;51.364;12.384;2023-06-22T05:14:00;22.60;99.90
14934;DHT22;7560;51.364;12.384;2023-06-22T05:19:02;22.90;99.90
14934;DHT22;7560;51.364;12.384;2023-06-22T05:24:05;22.80;99.90
14934;DHT22;7560;51.364;12.384;2023-06-22T05:29:07;22.70;99.90
14934;DHT22;7560;51.364;12.384;2023-06-22T05:34:09;23.10;99.90
14934;DHT22;7560;51.364;12.384;2023-06-22T05:39:12;23.20;99.90
14934;DHT22;7560;51.364;12.384;2023-06-22T05:44:18;22.90;99.90
14934;DHT22;7560;51.364;12.384;2023-06-22T05:49:19;22.70;99.90
14934;DHT22;7560;51.364;12.384;2023-06-22T05:54:23;23.00;99.90
14934;DHT22;7560;51.364;12.384;2023-06-22T05:59:25;23.20;99.90
14934;DHT22;7560;51.364;12.384;2023-06-22T06:04:27;23.20;99.90
14934;DHT22;7560;51.364;12.384;2023-06-22T06:09:28;23.40;99.90
14934;DHT22;7560;51.364;12.384;2023-06-22T06:14:30;23.70;99.90
14934;DHT22;7560;51.364;12.384;2023-06-22T06:19:32;23.90;99.90
14934;DHT22;7560;51.364;12.384;2023-06-22T06:24:34;23.90;99.90
14934;DHT22;7560;51.364;12.384;2023-06-22T06:29:36;24.20;99.90
14934;DHT22;7560;51.364;12.384;2023-06-22T06:34:37;24.90;99.90
14934;DHT22;7560;51.364;12.384;2023-06-22T06:39:39;25.10;99.90
14934;DHT22;7560;51.364;12.384;2023-06-22T06:44:43;25.30;99.90
14934;DHT22;7560;51.364;12.384;2023-06-22T06:49:44;25.40;99.90
14934;DHT22;7560;51.364;12.384;2023-06-22T06:54:46;25.40;99.90
14934;DHT22;7560;51.364;12.384;2023-06-22T06:59:49;25.60;99.90
14934;DHT22;7560;51.364;12.384;2023-06-22T07:04:50;25.90;99.90
14934;DHT22;7560;51.364;12.384;2023-06-22T07:09:52;25.90;99.90
14934;DHT22;7560;51.364;12.384;2023-06-22T07:15:02;25.90;99.90
14934;DHT22;7560;51.364;12.384;2023-06-22T07:20:04;26.10;99.90
14934;DHT22;7560;51.364;12.384;2023-06-22T07:25:14;26.20;99.90
14934;DHT22;7560;51.364;12.384;2023-06-22T07:30:16;26.30;99.90
14934;DHT22;7560;51.364;12.384;2023-06-22T07:35:19;26.20;99.90
14934;DHT22;7560;51.364;12.384;2023-06-22T07:40:21;26.30;99.90
14934;DHT22;7560;51.364;12.384;2023-06-22T07:45:23;26.20;99.90
14934;DHT22;7560;51.364;12.384;2023-06-22T07:50:25;26.50;99.90
14934;DHT22;7560;51.364;12.384;2023-06-22T07:55:26;26.70;99.90
14934;DHT22;7560;51.364;12.384;2023-06-22T08:00:29;27.10;99.90
14934;DHT22;7560;51.364;12.384;2023-06-22T08:05:31;27.10;99.90
14934;DHT22;7560;51.364;12.384;2023-06-22T08:10:33;27.20;99.90
14934;DHT22;7560;51.364;12.384;2023-06-22T08:15:35;27.10;99.90
14934;DHT22;7560;51.364;12.384;2023-06-22T08:20:37;26.80;99.90
14934;DHT22;7560;51.364;12.384;2023-06-22T08:25:39;26.90;99.90
14934;DHT22;7560;51.364;12.384;2023-06-22T08:30:41;26.80;99.90
14934;DHT22;7560;51.364;12.384;2023-06-22T08:35:43;26.90;99.90
14934;DHT22;7560;51.364;12.384;2023-06-22T08:40:45;27.10;99.90
14934;DHT22;7560;51.364;12.384;2023-06-22T08:45:47;27.30;99.90
14934;DHT22;7560;51.364;12.384;2023-06-22T08:50:48;27.50;99.90
14934;DHT22;7560;51.364;12.384;2023-06-22T08:55:50;27.50;99.90
14934;DHT22;7560;51.364;12.384;2023-06-22T09:00:52;27.70;99.90
14934;DHT22;7560;51.364;12.384;2023-06-22T09:05:54;27.60;99.90
14934;DHT22;7560;51.364;12.384;2023-06-22T09:10:56;27.90;99.90
14934;DHT22;7560;51.364;12.384;2023-06-22T09:15:58;28.10;99.90
14934;DHT22;7560;51.364;12.384;2023-06-22T09:21:00;28.30;99.90
14934;DHT22;7560;51.364;12.384;2023-06-22T09:26:02;28.30;99.90
14934;DHT22;7560;51.364;12.384;2023-06-22T09:31:05;28.10;99.90
14934;DHT22;7560;51.364;12.384;2023-06-22T09:36:08;28.10;99.90
14934;DHT22;7560;51.364;12.384;2023-06-22T09:41:10;28.30;99.90
14934;DHT22;7560;51.364;12.384;2023-06-22T09:46:12;28.30;99.90
14934;DHT22;7560;51.364;12.384;2023-06-22T09:51:14;28.20;99.90
14934;DHT22;7560;51.364;12.384;2023-06-22T09:56:18;28.40;99.90
14934;DHT22;7560;51.364;12.384;2023-06-22T10:01:20;28.60;99.90
14934;DHT22;7560;51.364;12.384;2023-06-22T10:06:23;28.80;99.90
14934;DHT22;7560;51.364;12.384;2023-06-22T10:11:26;29.40;99.90
14934;DHT22;7560;51.364;12.384;2023-06-22T10:16:32;29.60;99.90
14934;DHT22;7560;51.364;12.384;2023-06-22T10:21:34;29.30;99.90
14934;DHT22;7560;51.364;12.384;2023-06-22T10:26:36;29.10;99.90
14934;DHT22;7560;51.364;12.384;2023-06-22T10:31:38;29.30;99.90
14934;DHT22;7560;51.364;12.384;2023-06-22T10:36:40;29.30;99.90
14934;DHT22;7560;51.364;12.384;2023-06-22T10:41:42;29.30;99.90
14934;DHT22;7560;51.364;12.384;2023-06-22T10:46:44;29.10;99.90
14934;DHT22;7560;51.364;12.384;2023-06-22T10:51:45;29.40;99.90
14934;DHT22;7560;51.364;12.384;2023-06-22T10:56:47;29.80;99.90
14934;DHT22;7560;51.364;12.384;2023-06-22T11:01:49;29.80;99.90
14934;DHT22;7560;51.364;12.384;2023-06-22T11:06:51;29.80;99.90
14934;DHT22;7560;51.364;12.384;2023-06-22T11:11:53;30.20;99.90
14934;DHT22;7560;51.364;12.384;2023-06-22T11:16:55;30.30;99.90
14934;DHT22;7560;51.364;12.384;2023-06-22T11:21:57;30.50;99.90
14934;DHT22;7560;51.364;12.384;2023-06-22T11:26:59;30.40;99.90
14934;DHT22;7560;51.364;12.384;2023-06-22T11:32:01;30.60;99.90
14934;DHT22;7560;51.364;12.384;2023-06-22T11:37:03;30.60;99.90
14934;DHT22;7560;51.364;12.384;2023-06-22T11:42:05;30.50;99.90
14934;DHT22;7560;51.364;12.384;2023-06-22T11:47:07;30.50;99.90
14934;DHT22;7560;51.364;12.384;2023-06-22T11:52:09;30.80;99.90
14934;DHT22;7560;51.364;12.384;2023-06-22T11:57:11;30.90;99.90
14934;DHT22;7560;51.364;12.384;2023-06-22T12:02:13;31.00;99.90
14934;DHT22;7560;51.364;12.384;2023-06-22T12:07:14;31.00;99.90
14934;DHT22;7560;51.364;12.384;2023-06-22T12:12:17;31.20;99.90
14934;DHT22;7560;51.364;12.384;2023-06-22T12:17:19;31.50;99.90
14934;DHT22;7560;51.364;12.384;2023-06-22T12:22:20;31.50;99.90
14934;DHT22;7560;51.364;12.384;2023-06-22T12:27:22;32.20;99.90
14934;DHT22;7560;51.364;12.384;2023-06-22T12:32:24;32.00;99.90
14934;DHT22;7560;51.364;12.384;2023-06-22T12:37:27;31.90;99.90
14934;DHT22;7560;51.364;12.384;2023-06-22T12:42:29;32.00;99.90
14934;DHT22;7560;51.364;12.384;2023-06-22T12:47:31;32.50;99.90
14934;DHT22;7560;51.364;12.384;2023-06-22T12:52:32;32.50;99.90
14934;DHT22;7560;51.364;12.384;2023-06-22T12:57:34;32.60;99.90
14934;DHT22;7560;51.364;12.384;2023-06-22T13:02:36;32.90;99.90
14934;DHT22;7560;51.364;12.384;2023-06-22T13:07:38;32.90;99.90
14934;DHT22;7560;51.364;12.384;2023-06-22T13:12:40;32.90;99.90
14934;DHT22;7560;51.364;12.384;2023-06-22T13:17:42;32.60;99.90
14934;DHT22;7560;51.364;12.384;2023-06-22T13:22:44;32.60;99.90
14934;DHT22;7560;51.364;12.384;2023-06-22T13:27:46;32.80;99.90
14934;DHT22;7560;51.364;12.384;2023-06-22T13:32:47;33.00;99.40
14934;DHT22;7560;51.364;12.384;2023-06-22T13:37:49;33.30;99.50
14934;DHT22;7560;51.364;12.384;2023-06-22T13:42:51;33.50;99.30
14934;DHT22;7560;51.364;12.384;2023-06-22T13:47:56;33.70;99.00
14934;DHT22;7560;51.364;12.384;2023-06-22T13:52:58;33.50;98.90
14934;DHT22;7560;51.364;12.384;2023-06-22T13:58:00;33.60;98.60
14934;DHT22;7560;51.364;12.384;2023-06-22T14:03:02;34.10;97.90
14934;DHT22;7560;51.364;12.384;2023-06-22T14:08:04;34.40;97.60
14934;DHT22;7560;51.364;12.384;2023-06-22T14:13:20;34.50;97.40
14934;DHT22;7560;51.364;12.384;2023-06-22T14:18:22;34.60;97.20
14934;DHT22;7560;51.364;12.384;2023-06-22T14:23:25;34.10;97.50
14934;DHT22;7560;51.364;12.384;2023-06-22T14:28:26;34.20;97.50
14934;DHT22;7560;51.364;12.384;2023-06-22T14:33:28;34.10;97.90
14934;DHT22;7560;51.364;12.384;2023-06-22T14:38:30;34.60;97.80
14934;DHT22;7560;51.364;12.384;2023-06-22T14:43:32;34.80;97.00
14934;DHT22;7560;51.364;12.384;2023-06-22T14:48:34;34.90;96.70
14934;DHT22;7560;51.364;12.384;2023-06-22T14:53:36;34.60;96.90
14934;DHT22;7560;51.364;12.384;2023-06-22T14:58:40;35.10;96.00
14934;DHT22;7560;51.364;12.384;2023-06-22T15:03:42;35.10;96.00
14934;DHT22;7560;51.364;12.384;2023-06-22T15:08:44;34.90;95.90
14934;DHT22;7560;51.364;12.384;2023-06-22T15:13:46;34.20;96.40
14934;DHT22;7560;51.364;12.384;2023-06-22T15:18:47;33.70;97.00
14934;DHT22;7560;51.364;12.384;2023-06-22T15:23:50;34.20;96.40
14934;DHT22;7560;51.364;12.384;2023-06-22T15:28:52;33.60;96.70
14934;DHT22;7560;51.364;12.384;2023-06-22T15:33:53;33.60;96.70
14934;DHT22;7560;51.364;12.384;2023-06-22T15:38:56;33.60;96.80
14934;DHT22;7560;51.364;12.384;2023-06-22T15:43:58;33.90;97.20
14934;DHT22;7560;51.364;12.384;2023-06-22T15:49:00;34.00;96.70
14934;DHT22;7560;51.364;12.384;2023-06-22T15:54:02;34.00;96.70
14934;DHT22;7560;51.364;12.384;2023-06-22T15:59:03;33.90;96.90
14934;DHT22;7560;51.364;12.384;2023-06-22T16:04:05;34.30;96.40
14934;DHT22;7560;51.364;12.384;2023-06-22T16:09:07;34.40;96.00
14934;DHT22;7560;51.364;12.384;2023-06-22T16:14:09;34.60;96.10
14934;DHT22;7560;51.364;12.384;2023-06-22T16:19:11;34.00;96.30
14934;DHT22;7560;51.364;12.384;2023-06-22T16:24:13;33.60;96.70
14934;DHT22;7560;51.364;12.384;2023-06-22T16:29:15;33.30;96.90
14934;DHT22;7560;51.364;12.384;2023-06-22T16:34:17;33.50;97.10
14934;DHT22;7560;51.364;12.384;2023-06-22T16:39:19;33.20;97.60
14934;DHT22;7560;51.364;12.384;2023-06-22T16:44:21;32.80;97.80
14934;DHT22;7560;51.364;12.384;2023-06-22T16:49:24;32.30;98.30
14934;DHT22;7560;51.364;12.384;2023-06-22T16:54:30;32.10;98.30
14934;DHT22;7560;51.364;12.384;2023-06-22T16:59:31;31.90;98.70
14934;DHT22;7560;51.364;12.384;2023-06-22T17:04:34;31.70;99.30
14934;DHT22;7560;51.364;12.384;2023-06-22T17:09:40;31.40;99.70
14934;DHT22;7560;51.364;12.384;2023-06-22T17:14:44;31.40;99.90
14934;DHT22;7560;51.364;12.384;2023-06-22T17:19:46;31.40;99.90
14934;DHT22;7560;51.364;12.384;2023-06-22T17:24:50;31.30;99.90
14934;DHT22;7560;51.364;12.384;2023-06-22T17:30:06;31.40;99.90
14934;DHT22;7560;51.364;12.384;2023-06-22T17:35:10;31.30;99.90
14934;DHT22;7560;51.364;12.384;2023-06-22T17:40:17;31.30;99.90
14934;DHT22;7560;51.364;12.384;2023-06-22T17:45:21;31.20;99.90
14934;DHT22;7560;51.364;12.384;2023-06-22T17:50:24;31.00;99.90
14934;DHT22;7560;51.364;12.384;2023-06-22T17:55:26;30.90;99.90
14934;DHT22;7560;51.364;12.384;2023-06-22T18:00:28;30.80;99.90
14934;DHT22;7560;51.364;12.384;2023-06-22T18:05:34;30.60;99.90
14934;DHT22;7560;51.364;12.384;2023-06-22T18:10:38;30.50;99.90
14934;DHT22;7560;51.364;12.384;2023-06-22T18:15:41;30.30;99.90
14934;DHT22;7560;51.364;12.384;2023-06-22T18:20:45;30.00;99.90
14934;DHT22;7560;51.364;12.384;2023-06-22T18:25:48;29.90;99.90
14934;DHT22;7560;51.364;12.384;2023-06-22T18:30:50;29.80;99.90
14934;DHT22;7560;51.364;12.384;2023-06-22T18:35:52;29.80;99.90
14934;DHT22;7560;51.364;12.384;2023-06-22T18:40:55;29.70;99.90
14934;DHT22;7560;51.364;12.384;2023-06-22T18:46:29;29.70;99.90
14934;DHT22;7560;51.364;12.384;2023-06-22T18:51:52;29.60;99.90
14934;DHT22;7560;51.364;12.384;2023-06-22T18:56:56;29.50;99.90
14934;DHT22;7560;51.364;12.384;2023-06-22T19:02:01;29.40;99.90
14934;DHT22;7560;51.364;12.384;2023-06-22T19:07:03;29.40;99.90
14934;DHT22;7560;51.364;12.384;2023-06-22T19:12:18;29.20;99.90
14934;DHT22;7560;51.364;12.384;2023-06-22T19:17:20;29.10;99.90
14934;DHT22;7560;51.364;12.384;2023-06-22T19:22:47;29.00;99.90
14934;DHT22;7560;51.364;12.384;2023-06-22T19:27:53;28.90;99.90
14934;DHT22;7560;51.364;12.384;2023-06-22T19:32:59;28.80;99.90
14934;DHT22;7560;51.364;12.384;2023-06-22T19:38:01;28.70;99.90
14934;DHT22;7560;51.364;12.384;2023-06-22T19:43:06;28.60;99.90
14934;DHT22;7560;51.364;12.384;2023-06-22T19:48:13;28.60;99.90
14934;DHT22;7560;51.364;12.384;2023-06-22T19:53:15;28.50;99.90
14934;DHT22;7560;51.364;12.384;2023-06-22T19:58:20;28.50;99.90
14934;DHT22;7560;51.364;12.384;2023-06-22T20:03:30;28.50;99.90
14934;DHT22;7560;51.364;12.384;2023-06-22T20:08:50;28.40;99.90
14934;DHT22;7560;51.364;12.384;2023-06-22T20:13:57;28.30;99.90
14934;DHT22;7560;51.364;12.384;2023-06-22T20:19:12;28.20;99.90
14934;DHT22;7560;51.364;12.384;2023-06-22T20:24:17;28.00;99.90
14934;DHT22;7560;51.364;12.384;2023-06-22T20:29:27;27.80;99.90
14934;DHT22;7560;51.364;12.384;2023-06-22T20:34:41;27.70;99.90
14934;DHT22;7560;51.364;12.384;2023-06-22T20:39:46;27.60;99.90
14934;DHT22;7560;51.364;12.384;2023-06-22T20:44:50;22.90;99.90
14934;DHT22;7560;51.364;12.384;2023-06-22T20:49:53;22.00;99.90
14934;DHT22;7560;51.364;12.384;2023-06-22T20:54:58;22.00;99.90
14934;DHT22;7560;51.364;12.384;2023-06-22T21:00:03;21.70;99.90
14934;DHT22;7560;51.364;12.384;2023-06-22T21:05:08;21.40;99.90
14934;DHT22;7560;51.364;12.384;2023-06-22T21:10:10;20.90;99.90
14934;DHT22;7560;51.364;12.384;2023-06-22T21:15:12;19.80;99.90
14934;DHT22;7560;51.364;12.384;2023-06-22T21:20:13;19.60;99.90
14934;DHT22;7560;51.364;12.384;2023-06-22T21:25:15;19.40;99.90
14934;DHT22;7560;51.364;12.384;2023-06-22T21:30:17;19.40;99.90
14934;DHT22;7560;51.364;12.384;2023-06-22T21:35:19;19.40;99.90
14934;DHT22;7560;51.364;12.384;2023-06-22T21:40:21;19.30;99.90
14934;DHT22;7560;51.364;12.384;2023-06-22T21:45:24;19.40;99.90
14934;DHT22;7560;51.364;12.384;2023-06-22T21:50:25;19.40;99.90
14934;DHT22;7560;51.364;12.384;2023-06-22T21:55:27;19.60;99.90
14934;DHT22;7560;51.364;12.384;2023-06-22T22:00:30;19.80;99.90
14934;DHT22;7560;51.364;12.384;2023-06-22T22:05:31;19.80;99.90
14934;DHT22;7560;51.364;12.384;2023-06-22T22:10:34;19.70;99.90
14934;DHT22;7560;51.364;12.384;2023-06-22T22:15:38;20.00;99.90
14934;DHT22;7560;51.364;12.384;2023-06-22T22:20:40;20.50;99.90
14934;DHT22;7560;51.364;12.384;2023-06-22T22:25:42;20.50;99.90
14934;DHT22;7560;51.364;12.384;2023-06-22T22:30:44;20.40;99.90
14934;DHT22;7560;51.364;12.384;2023-06-22T22:35:46;20.10;99.90
14934;DHT22;7560;51.364;12.384;2023-06-22T22:40:48;20.10;99.90
14934;DHT22;7560;51.364;12.384;2023-06-22T22:45:49;19.90;99.90
14934;DHT22;7560;51.364;12.384;2023-06-22T22:50:51;19.90;99.90
14934;DHT22;7560;51.364;12.384;2023-06-22T22:55:54;19.90;99.90
14934;DHT22;7560;51.364;12.384;2023-06-22T23:00:56;20.20;99.90
14934;DHT22;7560;51.364;12.384;2023-06-22T23:05:58;20.50;99.90
14934;DHT22;7560;51.364;12.384;2023-06-22T23:11:00;20.30;99.90
14934;DHT22;7560;51.364;12.384;2023-06-22T23:16:02;19.90;99.90
14934;DHT22;7560;51.364;12.384;2023-06-22T23:21:04;20.10;99.90
14934;DHT22;7560;51.364;12.384;2023-06-22T23:26:06;20.40;99.90
14934;DHT22;7560;51.364;12.384;2023-06-22T23:31:09;20.80;99.90
14934;DHT22;7560;51.364;12.384;2023-06-22T23:36:11;20.80;99.90
14934;DHT22;7560;51.364;12.384;2023-06-22T23:41:13;21.00;99.90
14934;DHT22;7560;51.364;12.384;2023-06-22T23:46:14;21.20;99.90
14934;DHT22;7560;51.364;12.384;2023-06-22T23:51:16;21.20;99.90
14934;DHT22;7560;51.364;12.384;2023-06-22T23:56:18;21.30;99.90
